createdAt,value
2019-01-27T12:58:11.213Z,4.77
2019-01-27T13:00:44.394Z,6.73
2019-01-27T13:03:14.149Z,4.57
2019-01-27T13:05:43.940Z,4.93
2019-01-27T13:08:13.683Z,2.73
2019-01-27T13:10:43.442Z,5.40
2019-01-27T13:13:13.252Z,4.70
2019-01-27T13:15:42.965Z,2.80
2019-01-27T13:18:12.700Z,3.43
2019-01-27T13:20:42.452Z,4.17
2019-01-27T13:23:12.212Z,3.77
2019-01-27T13:25:42.895Z,3.70
2019-01-27T13:28:12.631Z,4.90
2019-01-27T13:30:42.562Z,3.70
2019-01-27T13:33:12.307Z,4.80
2019-01-27T13:35:42.096Z,5.13
2019-01-27T13:38:11.823Z,2.63
2019-01-27T13:40:41.609Z,3.87
2019-01-27T13:43:11.353Z,2.90
2019-01-27T13:45:41.075Z,4.30
2019-01-27T13:48:10.827Z,4.30
2019-01-27T13:50:40.547Z,4.17
2019-01-27T13:53:10.293Z,5.23
2019-01-27T13:55:40.065Z,6.47
2019-01-27T13:58:09.806Z,5.60
2019-01-27T14:00:41.726Z,4.00
2019-01-27T14:03:11.448Z,3.87
2019-01-27T14:05:41.278Z,2.73
2019-01-27T14:08:10.991Z,4.23
2019-01-27T14:10:40.739Z,3.67
2019-01-27T14:13:10.574Z,5.13
2019-01-27T14:15:40.602Z,4.07
2019-01-27T14:18:11.394Z,5.87
2019-01-27T14:20:41.129Z,3.67
2019-01-27T14:23:10.882Z,4.00
2019-01-27T14:25:41.121Z,5.00
2019-01-27T14:28:12.153Z,7.50
2019-01-27T14:30:44.502Z,6.77
2019-01-27T14:33:14.216Z,5.23
2019-01-27T14:35:43.967Z,5.50
2019-01-27T14:38:13.708Z,6.80
2019-01-27T14:40:43.661Z,6.63
2019-01-27T14:43:13.377Z,4.93
2019-01-27T14:45:43.147Z,7.23
2019-01-27T14:48:12.956Z,3.90
2019-01-27T14:50:47.859Z,7.77
2019-01-27T14:53:17.590Z,5.73
2019-01-27T14:55:47.403Z,3.67
2019-01-27T14:58:17.139Z,4.67
2019-01-27T15:00:46.885Z,7.87
2019-01-27T15:03:16.677Z,4.90
2019-01-27T15:05:46.427Z,6.60
2019-01-27T15:08:16.154Z,6.97
2019-01-27T15:10:45.900Z,5.83
2019-01-27T15:13:15.619Z,6.40
2019-01-27T15:15:45.431Z,7.43
2019-01-27T15:18:15.230Z,6.67
2019-01-27T15:20:48.430Z,8.23
2019-01-27T15:23:18.150Z,8.83
2019-01-27T15:25:47.890Z,8.17
2019-01-27T15:28:17.630Z,7.33
2019-01-27T15:30:47.397Z,9.77
2019-01-27T15:33:17.130Z,7.93
2019-01-27T15:35:46.850Z,10.93
2019-01-27T15:38:17.745Z,7.97
2019-01-27T15:40:47.568Z,11.70
2019-01-27T15:43:17.315Z,9.00
2019-01-27T15:45:48.021Z,11.20
2019-01-27T15:48:17.802Z,8.90
2019-01-27T15:50:47.540Z,12.80
2019-01-27T15:53:17.260Z,10.60
2019-01-27T15:55:47.013Z,11.30
2019-01-27T15:58:16.784Z,10.20
2019-01-27T16:00:46.535Z,11.30
2019-01-27T16:03:16.268Z,15.60
2019-01-27T16:05:46.056Z,10.97
2019-01-27T16:08:15.777Z,12.03
2019-01-27T16:10:45.533Z,13.00
2019-01-27T16:13:15.256Z,11.83
2019-01-27T16:15:45.019Z,12.97
2019-01-27T16:18:14.761Z,11.17
2019-01-27T16:20:44.526Z,12.93
2019-01-27T16:23:15.909Z,12.90
2019-01-27T16:25:45.651Z,12.57
2019-01-27T16:28:15.457Z,12.50
2019-01-27T16:30:55.533Z,14.87
2019-01-27T16:33:36.185Z,14.63
2019-01-27T16:36:05.942Z,14.50
2019-01-27T16:38:35.782Z,16.97
2019-01-27T16:41:05.508Z,16.57
2019-01-27T16:43:35.253Z,17.93
2019-01-27T16:46:04.995Z,20.97
2019-01-27T16:48:52.783Z,20.93
2019-01-27T16:51:22.557Z,21.67
2019-01-27T16:53:52.321Z,22.40
2019-01-27T16:56:22.099Z,23.60
2019-01-27T16:58:51.847Z,24.10
2019-01-27T17:01:21.633Z,27.13
2019-01-27T17:03:51.370Z,29.87
2019-01-27T17:06:21.141Z,29.00
2019-01-27T17:08:50.874Z,26.77
2019-01-27T17:11:20.614Z,18.27
2019-01-27T17:13:50.412Z,18.50
2019-01-27T17:16:20.226Z,16.63
2019-01-27T17:18:50.040Z,16.30
2019-01-27T17:21:19.886Z,18.00
2019-01-27T17:23:49.700Z,17.33
2019-01-27T17:26:19.468Z,12.73
2019-01-27T17:28:49.192Z,10.23
2019-01-27T17:31:18.950Z,8.17
2019-01-27T17:33:48.737Z,9.93
2019-01-27T17:36:18.476Z,9.83
2019-01-27T17:38:48.257Z,7.43
2019-01-27T17:41:18.018Z,8.37
2019-01-27T17:43:47.763Z,10.53
2019-01-27T17:46:17.525Z,14.43
2019-01-27T17:48:47.279Z,8.67
2019-01-27T17:51:17.037Z,10.37
2019-01-27T17:53:48.120Z,14.77
2019-01-27T17:56:18.414Z,13.47
2019-01-27T17:59:11.467Z,12.27
2019-01-27T18:01:43.713Z,10.93
2019-01-27T18:04:27.114Z,11.47
2019-01-27T18:07:04.387Z,13.90
2019-01-27T18:09:38.668Z,17.23
2019-01-27T18:12:10.075Z,12.90
2019-01-27T18:14:40.182Z,17.07
2019-01-27T18:17:09.995Z,16.17
2019-01-27T18:19:39.710Z,17.33
2019-01-27T18:22:09.470Z,17.17
2019-01-27T18:24:40.473Z,20.53
2019-01-27T18:27:10.239Z,20.93
2019-01-27T18:29:40.065Z,21.20
2019-01-27T18:32:09.793Z,17.57
2019-01-27T18:34:39.682Z,25.17
2019-01-27T18:37:09.496Z,21.80
2019-01-27T18:39:39.226Z,20.17
2019-01-27T18:42:09.054Z,20.87
2019-01-27T18:44:38.774Z,20.40
2019-01-27T18:47:08.559Z,23.07
2019-01-27T18:49:38.303Z,21.37
2019-01-27T18:52:08.059Z,21.20
2019-01-27T18:54:58.663Z,24.13
2019-01-27T18:57:30.942Z,24.70
2019-01-27T19:00:02.324Z,23.63
2019-01-27T19:02:36.312Z,23.33
2019-01-27T19:05:13.636Z,26.40
2019-01-27T19:07:45.010Z,26.97
2019-01-27T19:10:16.401Z,23.83
2019-01-27T19:12:50.791Z,25.47
2019-01-27T19:15:38.204Z,24.00
2019-01-27T19:18:25.568Z,23.67
2019-01-27T19:20:56.958Z,29.03
2019-01-27T19:23:30.231Z,21.73
2019-01-27T19:26:10.648Z,23.77
2019-01-27T19:28:42.115Z,23.03
2019-01-27T19:31:22.554Z,21.90
2019-01-27T19:33:59.977Z,24.47
2019-01-27T19:36:37.216Z,23.43
2019-01-27T19:39:13.140Z,19.43
2019-01-27T19:41:50.761Z,24.30
2019-01-27T19:44:22.191Z,27.47
2019-01-27T19:46:56.239Z,27.50
2019-01-27T19:49:27.714Z,24.47
2019-01-27T19:51:59.100Z,25.53
2019-01-27T19:54:46.945Z,26.30
2019-01-27T19:57:33.603Z,28.13
2019-01-27T20:00:13.115Z,27.40
2019-01-27T20:02:44.575Z,23.13
2019-01-27T20:05:15.996Z,23.53
2019-01-27T20:07:59.462Z,24.17
2019-01-27T20:10:46.033Z,25.97
2019-01-27T20:13:23.535Z,21.27
2019-01-27T20:16:09.858Z,23.70
2019-01-27T20:18:53.256Z,27.10
2019-01-27T20:21:33.227Z,27.30
2019-01-27T20:24:16.765Z,25.67
2019-01-27T20:26:57.363Z,23.50
2019-01-27T20:29:34.787Z,22.93
2019-01-27T20:32:08.872Z,22.50
2019-01-27T20:34:43.232Z,26.13
2019-01-27T20:37:14.607Z,22.60
2019-01-27T20:39:46.023Z,22.33
2019-01-27T20:42:22.826Z,21.30
2019-01-27T20:44:54.224Z,21.97
2019-01-27T20:47:25.587Z,21.47
2019-01-27T20:49:56.983Z,24.73
2019-01-27T20:52:34.012Z,21.30
2019-01-27T20:55:12.501Z,24.97
2019-01-27T20:57:43.879Z,23.23
2019-01-27T21:00:20.746Z,17.83
2019-01-27T21:03:08.659Z,19.93
2019-01-27T21:05:48.986Z,19.03
2019-01-27T21:08:32.244Z,21.90
2019-01-27T21:11:12.730Z,23.13
2019-01-27T21:13:50.045Z,27.03
2019-01-27T21:16:30.281Z,19.47
2019-01-27T21:19:19.839Z,23.67
2019-01-27T21:21:49.595Z,27.63
2019-01-27T21:24:19.360Z,18.30
2019-01-27T21:26:49.133Z,23.73
2019-01-27T21:29:18.864Z,22.90
2019-01-27T21:31:48.673Z,19.50
2019-01-27T21:34:18.392Z,21.17
2019-01-27T21:36:48.118Z,24.40
2019-01-27T21:39:17.847Z,25.77
2019-01-27T21:41:47.676Z,24.00
2019-01-27T21:44:17.451Z,29.67
2019-01-27T21:46:47.215Z,25.10
2019-01-27T21:49:18.572Z,30.27
2019-01-27T21:51:48.418Z,30.07
2019-01-27T21:54:18.224Z,23.87
2019-01-27T21:56:48.048Z,25.47
2019-01-27T21:59:17.785Z,28.90
2019-01-27T22:01:47.549Z,25.80
2019-01-27T22:04:17.347Z,31.03
2019-01-27T22:06:47.133Z,28.13
2019-01-27T22:09:16.958Z,28.37
2019-01-27T22:11:46.804Z,33.00
2019-01-27T22:14:17.651Z,30.23
2019-01-27T22:16:47.429Z,30.37
2019-01-27T22:19:17.167Z,32.80
2019-01-27T22:21:46.997Z,36.43
2019-01-27T22:24:16.737Z,33.63
2019-01-27T22:26:46.710Z,35.23
2019-01-27T22:29:16.446Z,35.77
2019-01-27T22:31:46.213Z,32.73
2019-01-27T22:34:16.002Z,36.10
2019-01-27T22:36:45.766Z,36.10
2019-01-27T22:39:15.499Z,31.33
2019-01-27T22:41:45.263Z,31.57
2019-01-27T22:44:14.965Z,38.53
2019-01-27T22:46:44.678Z,38.00
2019-01-27T22:49:14.438Z,35.77
2019-01-27T22:51:45.815Z,34.53
2019-01-27T22:54:15.541Z,33.57
2019-01-27T22:56:46.362Z,37.60
2019-01-27T22:59:16.092Z,34.33
2019-01-27T23:01:45.917Z,35.70
2019-01-27T23:04:15.648Z,35.07
2019-01-27T23:06:45.400Z,34.90
2019-01-27T23:09:16.792Z,35.07
2019-01-27T23:11:46.558Z,33.70
2019-01-27T23:14:16.293Z,32.90
2019-01-27T23:16:46.052Z,34.83
2019-01-27T23:19:15.760Z,30.57
2019-01-27T23:21:45.518Z,30.57
2019-01-27T23:24:15.279Z,32.23
2019-01-27T23:26:45.085Z,34.97
2019-01-27T23:29:14.822Z,31.20
2019-01-27T23:31:44.655Z,28.33
2019-01-27T23:34:15.345Z,35.77
2019-01-27T23:36:45.098Z,33.90
2019-01-27T23:39:14.829Z,32.47
2019-01-27T23:41:44.742Z,29.10
2019-01-27T23:44:14.452Z,30.17
2019-01-27T23:46:44.216Z,26.77
2019-01-27T23:49:13.946Z,29.47
2019-01-27T23:51:43.694Z,30.30
2019-01-27T23:54:13.506Z,28.47
2019-01-27T23:56:43.250Z,27.40
2019-01-27T23:59:12.991Z,29.00
